sensor_id;sensor_type;location;lat;lon;timestamp;P1;durP1;ratioP1;P2;durP2;ratioP2
44578;SDS011;37422;51.402;0.016;2022-11-06T00:01:39;3.25;;;1.75;;
44578;SDS011;37422;51.402;0.016;2022-11-06T00:04:07;2.65;;;1.30;;
44578;SDS011;37422;51.402;0.016;2022-11-06T00:06:35;2.28;;;1.30;;
44578;SDS011;37422;51.402;0.016;2022-11-06T00:09:17;2.07;;;1.33;;
44578;SDS011;37422;51.402;0.016;2022-11-06T00:11:49;7.60;;;1.60;;
44578;SDS011;37422;51.402;0.016;2022-11-06T00:14:18;4.03;;;1.35;;
44578;SDS011;37422;51.402;0.016;2022-11-06T00:16:46;2.92;;;1.50;;
44578;SDS011;37422;51.402;0.016;2022-11-06T00:19:14;4.72;;;1.90;;
44578;SDS011;37422;51.402;0.016;2022-11-06T00:21:42;4.57;;;2.08;;
44578;SDS011;37422;51.402;0.016;2022-11-06T00:24:11;8.15;;;2.28;;
44578;SDS011;37422;51.402;0.016;2022-11-06T00:26:40;4.20;;;1.70;;
44578;SDS011;37422;51.402;0.016;2022-11-06T00:29:11;5.78;;;1.60;;
44578;SDS011;37422;51.402;0.016;2022-11-06T00:31:40;6.10;;;1.95;;
44578;SDS011;37422;51.402;0.016;2022-11-06T00:34:07;3.85;;;1.90;;
44578;SDS011;37422;51.402;0.016;2022-11-06T00:36:35;7.20;;;1.63;;
44578;SDS011;37422;51.402;0.016;2022-11-06T00:39:03;4.55;;;1.55;;
44578;SDS011;37422;51.402;0.016;2022-11-06T00:41:31;7.28;;;1.85;;
44578;SDS011;37422;51.402;0.016;2022-11-06T00:43:59;4.80;;;1.23;;
44578;SDS011;37422;51.402;0.016;2022-11-06T00:46:28;3.78;;;1.60;;
44578;SDS011;37422;51.402;0.016;2022-11-06T00:48:56;5.65;;;1.45;;
44578;SDS011;37422;51.402;0.016;2022-11-06T00:51:26;4.97;;;1.30;;
44578;SDS011;37422;51.402;0.016;2022-11-06T00:56:23;5.80;;;1.85;;
44578;SDS011;37422;51.402;0.016;2022-11-06T00:58:51;4.55;;;1.80;;
44578;SDS011;37422;51.402;0.016;2022-11-06T01:01:23;2.75;;;1.40;;
44578;SDS011;37422;51.402;0.016;2022-11-06T01:03:57;8.63;;;2.05;;
44578;SDS011;37422;51.402;0.016;2022-11-06T01:06:30;4.00;;;1.95;;
44578;SDS011;37422;51.402;0.016;2022-11-06T01:09:00;13.32;;;1.90;;
44578;SDS011;37422;51.402;0.016;2022-11-06T01:11:33;11.38;;;2.25;;
44578;SDS011;37422;51.402;0.016;2022-11-06T01:14:22;7.40;;;2.58;;
44578;SDS011;37422;51.402;0.016;2022-11-06T01:16:51;9.18;;;1.85;;
44578;SDS011;37422;51.402;0.016;2022-11-06T01:19:19;10.73;;;2.20;;
44578;SDS011;37422;51.402;0.016;2022-11-06T01:21:49;4.40;;;1.98;;
44578;SDS011;37422;51.402;0.016;2022-11-06T01:24:22;6.57;;;1.60;;
44578;SDS011;37422;51.402;0.016;2022-11-06T01:26:54;7.10;;;1.58;;
44578;SDS011;37422;51.402;0.016;2022-11-06T01:29:42;4.43;;;1.35;;
44578;SDS011;37422;51.402;0.016;2022-11-06T01:32:10;7.38;;;1.70;;
44578;SDS011;37422;51.402;0.016;2022-11-06T01:34:38;9.38;;;2.65;;
44578;SDS011;37422;51.402;0.016;2022-11-06T01:37:06;8.02;;;2.00;;
44578;SDS011;37422;51.402;0.016;2022-11-06T01:39:40;9.50;;;2.08;;
44578;SDS011;37422;51.402;0.016;2022-11-06T01:42:11;9.65;;;2.25;;
44578;SDS011;37422;51.402;0.016;2022-11-06T01:47:28;8.75;;;2.22;;
44578;SDS011;37422;51.402;0.016;2022-11-06T01:49:56;7.70;;;2.40;;
44578;SDS011;37422;51.402;0.016;2022-11-06T01:52:31;7.60;;;2.28;;
44578;SDS011;37422;51.402;0.016;2022-11-06T01:55:06;7.18;;;2.58;;
44578;SDS011;37422;51.402;0.016;2022-11-06T01:57:43;8.27;;;2.40;;
44578;SDS011;37422;51.402;0.016;2022-11-06T02:00:12;11.00;;;3.17;;
44578;SDS011;37422;51.402;0.016;2022-11-06T02:02:40;6.03;;;3.00;;
44578;SDS011;37422;51.402;0.016;2022-11-06T02:05:08;7.55;;;2.70;;
44578;SDS011;37422;51.402;0.016;2022-11-06T02:07:36;14.35;;;3.80;;
44578;SDS011;37422;51.402;0.016;2022-11-06T02:10:05;7.55;;;2.83;;
44578;SDS011;37422;51.402;0.016;2022-11-06T02:12:56;6.18;;;2.33;;
44578;SDS011;37422;51.402;0.016;2022-11-06T02:32:15;9.45;;;2.92;;
44578;SDS011;37422;51.402;0.016;2022-11-06T02:34:57;18.70;;;5.88;;
44578;SDS011;37422;51.402;0.016;2022-11-06T02:37:28;8.82;;;2.70;;
44578;SDS011;37422;51.402;0.016;2022-11-06T02:39:59;8.85;;;2.60;;
44578;SDS011;37422;51.402;0.016;2022-11-06T02:42:30;12.07;;;2.60;;
44578;SDS011;37422;51.402;0.016;2022-11-06T02:45:01;8.38;;;2.13;;
44578;SDS011;37422;51.402;0.016;2022-11-06T02:47:33;11.88;;;2.92;;
44578;SDS011;37422;51.402;0.016;2022-11-06T02:52:48;10.07;;;2.60;;
44578;SDS011;37422;51.402;0.016;2022-11-06T02:55:24;8.25;;;4.95;;
44578;SDS011;37422;51.402;0.016;2022-11-06T02:58:02;12.98;;;3.83;;
44578;SDS011;37422;51.402;0.016;2022-11-06T03:00:39;9.13;;;2.90;;
44578;SDS011;37422;51.402;0.016;2022-11-06T03:05:45;11.57;;;2.70;;
44578;SDS011;37422;51.402;0.016;2022-11-06T03:08:17;8.20;;;2.47;;
44578;SDS011;37422;51.402;0.016;2022-11-06T03:11:00;10.38;;;2.53;;
44578;SDS011;37422;51.402;0.016;2022-11-06T03:19:00;8.18;;;2.40;;
44578;SDS011;37422;51.402;0.016;2022-11-06T03:21:42;11.75;;;3.20;;
44578;SDS011;37422;51.402;0.016;2022-11-06T03:24:17;9.32;;;2.63;;
44578;SDS011;37422;51.402;0.016;2022-11-06T03:26:57;8.55;;;3.03;;
44578;SDS011;37422;51.402;0.016;2022-11-06T03:29:32;11.93;;;3.80;;
44578;SDS011;37422;51.402;0.016;2022-11-06T03:34:44;19.15;;;4.65;;
44578;SDS011;37422;51.402;0.016;2022-11-06T03:37:27;7.63;;;3.10;;
44578;SDS011;37422;51.402;0.016;2022-11-06T03:40:00;7.18;;;2.67;;
44578;SDS011;37422;51.402;0.016;2022-11-06T03:42:31;14.27;;;2.90;;
44578;SDS011;37422;51.402;0.016;2022-11-06T03:45:01;9.50;;;2.78;;
44578;SDS011;37422;51.402;0.016;2022-11-06T03:50:15;8.35;;;2.53;;
44578;SDS011;37422;51.402;0.016;2022-11-06T03:52:53;9.90;;;2.30;;
44578;SDS011;37422;51.402;0.016;2022-11-06T03:55:33;7.85;;;2.33;;
44578;SDS011;37422;51.402;0.016;2022-11-06T03:58:06;7.63;;;2.38;;
44578;SDS011;37422;51.402;0.016;2022-11-06T04:00:46;6.28;;;2.13;;
44578;SDS011;37422;51.402;0.016;2022-11-06T04:03:24;4.07;;;2.30;;
44578;SDS011;37422;51.402;0.016;2022-11-06T04:05:58;3.13;;;1.50;;
44578;SDS011;37422;51.402;0.016;2022-11-06T04:08:32;6.28;;;1.85;;
44578;SDS011;37422;51.402;0.016;2022-11-06T04:11:19;4.63;;;1.33;;
44578;SDS011;37422;51.402;0.016;2022-11-06T04:14:09;2.50;;;1.23;;
44578;SDS011;37422;51.402;0.016;2022-11-06T04:16:42;5.05;;;1.23;;
44578;SDS011;37422;51.402;0.016;2022-11-06T04:19:16;4.00;;;1.30;;
44578;SDS011;37422;51.402;0.016;2022-11-06T04:25:03;3.40;;;1.42;;
44578;SDS011;37422;51.402;0.016;2022-11-06T04:30:48;2.00;;;1.20;;
44578;SDS011;37422;51.402;0.016;2022-11-06T04:33:36;1.83;;;1.40;;
44578;SDS011;37422;51.402;0.016;2022-11-06T04:36:28;1.55;;;1.20;;
44578;SDS011;37422;51.402;0.016;2022-11-06T04:41:57;1.75;;;1.30;;
44578;SDS011;37422;51.402;0.016;2022-11-06T04:44:33;2.35;;;1.20;;
44578;SDS011;37422;51.402;0.016;2022-11-06T04:47:06;3.83;;;1.40;;
44578;SDS011;37422;51.402;0.016;2022-11-06T04:49:37;3.00;;;1.48;;
44578;SDS011;37422;51.402;0.016;2022-11-06T04:52:07;2.60;;;1.40;;
44578;SDS011;37422;51.402;0.016;2022-11-06T04:54:38;3.35;;;1.23;;
44578;SDS011;37422;51.402;0.016;2022-11-06T04:57:07;6.45;;;1.65;;
44578;SDS011;37422;51.402;0.016;2022-11-06T04:59:34;9.82;;;2.40;;
44578;SDS011;37422;51.402;0.016;2022-11-06T05:02:03;11.10;;;2.65;;
44578;SDS011;37422;51.402;0.016;2022-11-06T05:04:32;10.35;;;2.22;;
44578;SDS011;37422;51.402;0.016;2022-11-06T05:06:59;12.18;;;2.85;;
44578;SDS011;37422;51.402;0.016;2022-11-06T05:09:27;17.35;;;2.85;;
44578;SDS011;37422;51.402;0.016;2022-11-06T05:11:55;13.38;;;2.25;;
44578;SDS011;37422;51.402;0.016;2022-11-06T05:14:22;14.43;;;2.95;;
44578;SDS011;37422;51.402;0.016;2022-11-06T05:16:50;13.32;;;3.05;;
44578;SDS011;37422;51.402;0.016;2022-11-06T05:19:18;17.17;;;3.25;;
44578;SDS011;37422;51.402;0.016;2022-11-06T05:21:45;11.60;;;3.10;;
44578;SDS011;37422;51.402;0.016;2022-11-06T05:24:31;18.70;;;3.47;;
44578;SDS011;37422;51.402;0.016;2022-11-06T05:26:59;15.88;;;3.50;;
44578;SDS011;37422;51.402;0.016;2022-11-06T05:29:27;17.23;;;3.70;;
44578;SDS011;37422;51.402;0.016;2022-11-06T05:31:54;7.65;;;2.42;;
44578;SDS011;37422;51.402;0.016;2022-11-06T05:34:22;12.48;;;2.63;;
44578;SDS011;37422;51.402;0.016;2022-11-06T05:36:49;12.60;;;2.42;;
44578;SDS011;37422;51.402;0.016;2022-11-06T05:39:17;11.35;;;2.13;;
44578;SDS011;37422;51.402;0.016;2022-11-06T05:41:44;9.50;;;2.35;;
44578;SDS011;37422;51.402;0.016;2022-11-06T05:44:12;10.60;;;2.60;;
44578;SDS011;37422;51.402;0.016;2022-11-06T05:46:40;5.47;;;2.45;;
44578;SDS011;37422;51.402;0.016;2022-11-06T05:49:18;11.10;;;3.13;;
44578;SDS011;37422;51.402;0.016;2022-11-06T05:51:46;7.57;;;1.23;;
44578;SDS011;37422;51.402;0.016;2022-11-06T05:54:13;12.48;;;2.00;;
44578;SDS011;37422;51.402;0.016;2022-11-06T05:56:41;7.40;;;1.70;;
44578;SDS011;37422;51.402;0.016;2022-11-06T05:59:09;8.77;;;1.85;;
44578;SDS011;37422;51.402;0.016;2022-11-06T06:01:36;8.07;;;2.10;;
44578;SDS011;37422;51.402;0.016;2022-11-06T06:04:04;10.57;;;1.88;;
44578;SDS011;37422;51.402;0.016;2022-11-06T06:06:32;9.75;;;2.20;;
44578;SDS011;37422;51.402;0.016;2022-11-06T06:09:00;8.05;;;2.25;;
44578;SDS011;37422;51.402;0.016;2022-11-06T06:11:27;4.85;;;1.98;;
44578;SDS011;37422;51.402;0.016;2022-11-06T06:13:55;6.80;;;1.65;;
44578;SDS011;37422;51.402;0.016;2022-11-06T06:16:22;5.32;;;1.42;;
44578;SDS011;37422;51.402;0.016;2022-11-06T06:18:50;13.75;;;2.08;;
44578;SDS011;37422;51.402;0.016;2022-11-06T06:21:18;4.00;;;1.20;;
44578;SDS011;37422;51.402;0.016;2022-11-06T06:23:45;11.05;;;2.28;;
44578;SDS011;37422;51.402;0.016;2022-11-06T06:26:13;7.40;;;2.03;;
44578;SDS011;37422;51.402;0.016;2022-11-06T06:28:41;9.25;;;2.20;;
44578;SDS011;37422;51.402;0.016;2022-11-06T06:31:08;7.05;;;2.15;;
44578;SDS011;37422;51.402;0.016;2022-11-06T06:33:37;8.45;;;2.65;;
44578;SDS011;37422;51.402;0.016;2022-11-06T06:36:05;12.02;;;2.85;;
44578;SDS011;37422;51.402;0.016;2022-11-06T06:38:33;14.73;;;3.70;;
44578;SDS011;37422;51.402;0.016;2022-11-06T06:41:01;12.50;;;2.95;;
44578;SDS011;37422;51.402;0.016;2022-11-06T06:43:30;20.13;;;4.30;;
44578;SDS011;37422;51.402;0.016;2022-11-06T06:45:58;19.65;;;6.00;;
44578;SDS011;37422;51.402;0.016;2022-11-06T06:48:26;15.77;;;6.13;;
44578;SDS011;37422;51.402;0.016;2022-11-06T06:50:58;13.07;;;4.93;;
44578;SDS011;37422;51.402;0.016;2022-11-06T06:53:26;19.42;;;6.25;;
44578;SDS011;37422;51.402;0.016;2022-11-06T06:55:56;10.68;;;3.92;;
44578;SDS011;37422;51.402;0.016;2022-11-06T06:58:26;15.55;;;5.25;;
44578;SDS011;37422;51.402;0.016;2022-11-06T07:01:01;15.70;;;4.82;;
44578;SDS011;37422;51.402;0.016;2022-11-06T07:03:31;15.88;;;4.80;;
44578;SDS011;37422;51.402;0.016;2022-11-06T07:05:59;17.23;;;5.82;;
44578;SDS011;37422;51.402;0.016;2022-11-06T07:08:27;17.40;;;4.20;;
44578;SDS011;37422;51.402;0.016;2022-11-06T07:11:02;21.25;;;4.25;;
44578;SDS011;37422;51.402;0.016;2022-11-06T07:13:33;22.45;;;4.45;;
44578;SDS011;37422;51.402;0.016;2022-11-06T07:16:06;16.13;;;5.35;;
44578;SDS011;37422;51.402;0.016;2022-11-06T07:18:35;17.50;;;5.80;;
44578;SDS011;37422;51.402;0.016;2022-11-06T07:21:04;19.92;;;6.65;;
44578;SDS011;37422;51.402;0.016;2022-11-06T07:23:34;21.15;;;6.60;;
44578;SDS011;37422;51.402;0.016;2022-11-06T07:26:03;19.77;;;5.80;;
44578;SDS011;37422;51.402;0.016;2022-11-06T07:28:31;16.48;;;5.93;;
44578;SDS011;37422;51.402;0.016;2022-11-06T07:31:00;24.17;;;6.40;;
44578;SDS011;37422;51.402;0.016;2022-11-06T07:33:28;22.23;;;6.63;;
44578;SDS011;37422;51.402;0.016;2022-11-06T07:36:03;26.17;;;6.38;;
44578;SDS011;37422;51.402;0.016;2022-11-06T07:38:37;27.77;;;5.85;;
44578;SDS011;37422;51.402;0.016;2022-11-06T07:41:07;19.70;;;5.97;;
44578;SDS011;37422;51.402;0.016;2022-11-06T07:43:36;27.13;;;6.65;;
44578;SDS011;37422;51.402;0.016;2022-11-06T07:46:05;23.73;;;7.65;;
44578;SDS011;37422;51.402;0.016;2022-11-06T07:48:34;27.53;;;4.47;;
44578;SDS011;37422;51.402;0.016;2022-11-06T07:51:03;14.90;;;3.80;;
44578;SDS011;37422;51.402;0.016;2022-11-06T07:53:32;21.83;;;6.20;;
44578;SDS011;37422;51.402;0.016;2022-11-06T07:56:00;21.85;;;4.18;;
44578;SDS011;37422;51.402;0.016;2022-11-06T07:58:28;26.25;;;5.93;;
44578;SDS011;37422;51.402;0.016;2022-11-06T08:00:57;19.20;;;5.63;;
44578;SDS011;37422;51.402;0.016;2022-11-06T08:03:25;14.82;;;4.25;;
44578;SDS011;37422;51.402;0.016;2022-11-06T08:06:01;13.82;;;4.70;;
44578;SDS011;37422;51.402;0.016;2022-11-06T08:08:31;14.95;;;3.55;;
44578;SDS011;37422;51.402;0.016;2022-11-06T08:11:06;9.25;;;3.25;;
44578;SDS011;37422;51.402;0.016;2022-11-06T08:13:35;12.57;;;3.67;;
44578;SDS011;37422;51.402;0.016;2022-11-06T08:16:04;11.85;;;3.05;;
44578;SDS011;37422;51.402;0.016;2022-11-06T08:18:33;12.50;;;3.35;;
44578;SDS011;37422;51.402;0.016;2022-11-06T08:21:02;13.15;;;2.92;;
44578;SDS011;37422;51.402;0.016;2022-11-06T08:23:30;14.57;;;3.33;;
44578;SDS011;37422;51.402;0.016;2022-11-06T08:25:59;11.90;;;3.47;;
44578;SDS011;37422;51.402;0.016;2022-11-06T08:28:28;19.20;;;5.07;;
44578;SDS011;37422;51.402;0.016;2022-11-06T08:30:56;11.82;;;4.15;;
44578;SDS011;37422;51.402;0.016;2022-11-06T08:33:24;17.98;;;3.00;;
44578;SDS011;37422;51.402;0.016;2022-11-06T08:35:51;16.65;;;2.90;;
44578;SDS011;37422;51.402;0.016;2022-11-06T08:38:19;22.30;;;3.83;;
44578;SDS011;37422;51.402;0.016;2022-11-06T08:40:46;12.48;;;2.92;;
44578;SDS011;37422;51.402;0.016;2022-11-06T08:43:19;15.15;;;2.67;;
44578;SDS011;37422;51.402;0.016;2022-11-06T08:45:50;11.00;;;2.58;;
44578;SDS011;37422;51.402;0.016;2022-11-06T08:48:17;11.45;;;3.30;;
44578;SDS011;37422;51.402;0.016;2022-11-06T08:50:45;12.35;;;2.65;;
44578;SDS011;37422;51.402;0.016;2022-11-06T08:53:12;10.98;;;1.98;;
44578;SDS011;37422;51.402;0.016;2022-11-06T08:55:41;11.48;;;2.28;;
44578;SDS011;37422;51.402;0.016;2022-11-06T08:58:08;7.53;;;2.20;;
44578;SDS011;37422;51.402;0.016;2022-11-06T09:00:36;12.13;;;2.20;;
44578;SDS011;37422;51.402;0.016;2022-11-06T09:03:05;7.40;;;2.00;;
44578;SDS011;37422;51.402;0.016;2022-11-06T09:05:37;6.85;;;1.88;;
44578;SDS011;37422;51.402;0.016;2022-11-06T09:08:07;7.13;;;1.58;;
44578;SDS011;37422;51.402;0.016;2022-11-06T09:10:36;8.23;;;1.92;;
44578;SDS011;37422;51.402;0.016;2022-11-06T09:13:09;13.23;;;2.47;;
44578;SDS011;37422;51.402;0.016;2022-11-06T09:15:37;11.95;;;2.08;;
44578;SDS011;37422;51.402;0.016;2022-11-06T09:18:06;6.93;;;1.80;;
44578;SDS011;37422;51.402;0.016;2022-11-06T09:20:36;6.75;;;1.63;;
44578;SDS011;37422;51.402;0.016;2022-11-06T09:23:05;6.53;;;2.00;;
44578;SDS011;37422;51.402;0.016;2022-11-06T09:25:34;8.68;;;1.98;;
44578;SDS011;37422;51.402;0.016;2022-11-06T09:28:03;15.90;;;2.15;;
44578;SDS011;37422;51.402;0.016;2022-11-06T09:30:31;4.60;;;1.38;;
44578;SDS011;37422;51.402;0.016;2022-11-06T09:32:59;7.82;;;1.58;;
44578;SDS011;37422;51.402;0.016;2022-11-06T09:35:30;5.90;;;2.08;;
44578;SDS011;37422;51.402;0.016;2022-11-06T09:40:38;4.57;;;2.20;;
44578;SDS011;37422;51.402;0.016;2022-11-06T09:49:01;9.75;;;3.38;;
44578;SDS011;37422;51.402;0.016;2022-11-06T09:51:47;9.82;;;2.70;;
44578;SDS011;37422;51.402;0.016;2022-11-06T09:54:36;7.60;;;2.80;;
44578;SDS011;37422;51.402;0.016;2022-11-06T09:59:39;7.72;;;2.25;;
44578;SDS011;37422;51.402;0.016;2022-11-06T10:02:16;4.13;;;1.73;;
44578;SDS011;37422;51.402;0.016;2022-11-06T10:05:07;9.43;;;1.38;;
44578;SDS011;37422;51.402;0.016;2022-11-06T10:07:43;7.68;;;1.80;;
44578;SDS011;37422;51.402;0.016;2022-11-06T10:10:14;4.53;;;1.23;;
44578;SDS011;37422;51.402;0.016;2022-11-06T10:16:02;4.00;;;0.93;;
44578;SDS011;37422;51.402;0.016;2022-11-06T10:23:56;1.98;;;1.02;;
44578;SDS011;37422;51.402;0.016;2022-11-06T10:26:36;5.45;;;1.85;;
44578;SDS011;37422;51.402;0.016;2022-11-06T10:31:55;2.53;;;1.40;;
44578;SDS011;37422;51.402;0.016;2022-11-06T10:34:56;3.78;;;1.00;;
44578;SDS011;37422;51.402;0.016;2022-11-06T10:37:34;3.25;;;1.02;;
44578;SDS011;37422;51.402;0.016;2022-11-06T10:40:18;7.57;;;1.50;;
44578;SDS011;37422;51.402;0.016;2022-11-06T10:42:54;2.78;;;1.23;;
44578;SDS011;37422;51.402;0.016;2022-11-06T10:45:35;2.72;;;1.10;;
44578;SDS011;37422;51.402;0.016;2022-11-06T10:48:18;4.38;;;1.75;;
44578;SDS011;37422;51.402;0.016;2022-11-06T10:51:03;4.18;;;1.98;;
44578;SDS011;37422;51.402;0.016;2022-11-06T10:59:52;6.07;;;1.90;;
44578;SDS011;37422;51.402;0.016;2022-11-06T11:02:26;1.65;;;1.55;;
44578;SDS011;37422;51.402;0.016;2022-11-06T11:04:57;6.38;;;2.42;;
44578;SDS011;37422;51.402;0.016;2022-11-06T11:07:28;5.30;;;1.70;;
44578;SDS011;37422;51.402;0.016;2022-11-06T11:09:57;8.20;;;1.65;;
44578;SDS011;37422;51.402;0.016;2022-11-06T11:12:29;3.83;;;1.45;;
44578;SDS011;37422;51.402;0.016;2022-11-06T11:15:08;3.55;;;1.23;;
44578;SDS011;37422;51.402;0.016;2022-11-06T11:17:38;2.90;;;1.27;;
44578;SDS011;37422;51.402;0.016;2022-11-06T11:23:14;9.55;;;1.98;;
44578;SDS011;37422;51.402;0.016;2022-11-06T11:25:49;8.98;;;1.80;;
44578;SDS011;37422;51.402;0.016;2022-11-06T11:28:20;8.40;;;1.67;;
44578;SDS011;37422;51.402;0.016;2022-11-06T11:31:12;8.90;;;2.08;;
44578;SDS011;37422;51.402;0.016;2022-11-06T11:33:52;7.13;;;1.60;;
44578;SDS011;37422;51.402;0.016;2022-11-06T11:36:21;13.88;;;2.38;;
44578;SDS011;37422;51.402;0.016;2022-11-06T11:38:49;16.30;;;5.15;;
44578;SDS011;37422;51.402;0.016;2022-11-06T11:44:05;30.67;;;5.03;;
44578;SDS011;37422;51.402;0.016;2022-11-06T11:46:50;10.38;;;2.75;;
44578;SDS011;37422;51.402;0.016;2022-11-06T11:51:53;10.88;;;2.78;;
44578;SDS011;37422;51.402;0.016;2022-11-06T11:54:24;14.57;;;3.08;;
44578;SDS011;37422;51.402;0.016;2022-11-06T11:56:56;13.63;;;2.65;;
44578;SDS011;37422;51.402;0.016;2022-11-06T11:59:42;20.88;;;2.83;;
44578;SDS011;37422;51.402;0.016;2022-11-06T12:02:34;10.70;;;2.55;;
44578;SDS011;37422;51.402;0.016;2022-11-06T12:05:12;13.13;;;3.25;;
44578;SDS011;37422;51.402;0.016;2022-11-06T12:07:43;13.52;;;2.97;;
44578;SDS011;37422;51.402;0.016;2022-11-06T12:13:21;13.27;;;3.35;;
44578;SDS011;37422;51.402;0.016;2022-11-06T12:18:30;15.02;;;3.25;;
44578;SDS011;37422;51.402;0.016;2022-11-06T12:28:35;20.27;;;4.93;;
44578;SDS011;37422;51.402;0.016;2022-11-06T12:31:24;23.63;;;4.78;;
44578;SDS011;37422;51.402;0.016;2022-11-06T12:34:13;19.65;;;3.67;;
44578;SDS011;37422;51.402;0.016;2022-11-06T12:36:54;26.73;;;4.88;;
44578;SDS011;37422;51.402;0.016;2022-11-06T12:39:42;27.58;;;4.28;;
44578;SDS011;37422;51.402;0.016;2022-11-06T12:42:18;15.82;;;4.68;;
44578;SDS011;37422;51.402;0.016;2022-11-06T12:44:48;25.45;;;3.97;;
44578;SDS011;37422;51.402;0.016;2022-11-06T12:50:07;18.33;;;3.90;;
44578;SDS011;37422;51.402;0.016;2022-11-06T12:55:33;22.48;;;4.55;;
44578;SDS011;37422;51.402;0.016;2022-11-06T13:09:43;24.90;;;5.25;;
44578;SDS011;37422;51.402;0.016;2022-11-06T13:12:32;19.73;;;4.00;;
44578;SDS011;37422;51.402;0.016;2022-11-06T13:32:45;18.98;;;3.78;;
44578;SDS011;37422;51.402;0.016;2022-11-06T13:35:28;20.60;;;3.63;;
44578;SDS011;37422;51.402;0.016;2022-11-06T13:37:58;20.70;;;5.28;;
44578;SDS011;37422;51.402;0.016;2022-11-06T13:40:32;14.73;;;3.50;;
44578;SDS011;37422;51.402;0.016;2022-11-06T13:57:42;19.40;;;4.38;;
44578;SDS011;37422;51.402;0.016;2022-11-06T14:00:23;8.93;;;2.30;;
44578;SDS011;37422;51.402;0.016;2022-11-06T14:16:28;10.50;;;1.95;;
44578;SDS011;37422;51.402;0.016;2022-11-06T14:19:05;11.13;;;2.70;;
44578;SDS011;37422;51.402;0.016;2022-11-06T14:24:26;8.38;;;2.20;;
44578;SDS011;37422;51.402;0.016;2022-11-06T14:27:02;8.05;;;1.58;;
44578;SDS011;37422;51.402;0.016;2022-11-06T14:32:01;7.82;;;1.52;;
44578;SDS011;37422;51.402;0.016;2022-11-06T14:34:30;9.32;;;1.55;;
44578;SDS011;37422;51.402;0.016;2022-11-06T14:42:27;8.27;;;1.48;;
44578;SDS011;37422;51.402;0.016;2022-11-06T14:45:07;6.00;;;1.80;;
44578;SDS011;37422;51.402;0.016;2022-11-06T14:50:30;10.52;;;2.10;;
44578;SDS011;37422;51.402;0.016;2022-11-06T14:53:00;9.40;;;2.33;;
44578;SDS011;37422;51.402;0.016;2022-11-06T14:56:18;7.40;;;2.75;;
44578;SDS011;37422;51.402;0.016;2022-11-06T14:58:55;11.70;;;2.40;;
44578;SDS011;37422;51.402;0.016;2022-11-06T15:01:28;11.65;;;4.57;;
44578;SDS011;37422;51.402;0.016;2022-11-06T15:04:03;11.07;;;4.45;;
44578;SDS011;37422;51.402;0.016;2022-11-06T15:06:41;10.15;;;3.05;;
44578;SDS011;37422;51.402;0.016;2022-11-06T15:12:01;24.17;;;15.13;;
44578;SDS011;37422;51.402;0.016;2022-11-06T15:17:05;15.38;;;10.52;;
44578;SDS011;37422;51.402;0.016;2022-11-06T15:19:41;9.85;;;2.15;;
44578;SDS011;37422;51.402;0.016;2022-11-06T15:27:52;33.67;;;30.40;;
44578;SDS011;37422;51.402;0.016;2022-11-06T15:30:32;9.45;;;4.90;;
44578;SDS011;37422;51.402;0.016;2022-11-06T15:33:09;23.65;;;17.90;;
44578;SDS011;37422;51.402;0.016;2022-11-06T15:35:40;18.70;;;10.88;;
44578;SDS011;37422;51.402;0.016;2022-11-06T15:38:18;42.55;;;37.92;;
44578;SDS011;37422;51.402;0.016;2022-11-06T15:40:50;3.97;;;2.28;;
44578;SDS011;37422;51.402;0.016;2022-11-06T15:43:29;4.85;;;1.75;;
44578;SDS011;37422;51.402;0.016;2022-11-06T15:46:12;21.38;;;10.90;;
44578;SDS011;37422;51.402;0.016;2022-11-06T15:48:44;9.75;;;5.07;;
44578;SDS011;37422;51.402;0.016;2022-11-06T15:51:25;18.65;;;11.90;;
44578;SDS011;37422;51.402;0.016;2022-11-06T15:53:54;4.90;;;2.70;;
44578;SDS011;37422;51.402;0.016;2022-11-06T15:56:23;11.40;;;5.13;;
44578;SDS011;37422;51.402;0.016;2022-11-06T15:59:07;2.38;;;1.85;;
44578;SDS011;37422;51.402;0.016;2022-11-06T16:01:37;4.55;;;2.67;;
44578;SDS011;37422;51.402;0.016;2022-11-06T16:04:10;3.35;;;2.20;;
44578;SDS011;37422;51.402;0.016;2022-11-06T16:06:42;4.90;;;2.30;;
44578;SDS011;37422;51.402;0.016;2022-11-06T16:09:20;7.18;;;3.58;;
44578;SDS011;37422;51.402;0.016;2022-11-06T16:11:51;4.72;;;1.92;;
44578;SDS011;37422;51.402;0.016;2022-11-06T16:14:19;4.03;;;2.38;;
44578;SDS011;37422;51.402;0.016;2022-11-06T16:16:51;5.72;;;2.10;;
44578;SDS011;37422;51.402;0.016;2022-11-06T16:19:22;4.63;;;1.73;;
44578;SDS011;37422;51.402;0.016;2022-11-06T16:22:00;12.40;;;7.85;;
44578;SDS011;37422;51.402;0.016;2022-11-06T16:24:39;8.90;;;5.45;;
44578;SDS011;37422;51.402;0.016;2022-11-06T16:27:13;18.30;;;13.40;;
44578;SDS011;37422;51.402;0.016;2022-11-06T16:29:45;9.88;;;2.92;;
44578;SDS011;37422;51.402;0.016;2022-11-06T16:32:17;5.68;;;2.17;;
44578;SDS011;37422;51.402;0.016;2022-11-06T16:34:56;6.13;;;1.95;;
44578;SDS011;37422;51.402;0.016;2022-11-06T16:39:56;9.18;;;2.00;;
44578;SDS011;37422;51.402;0.016;2022-11-06T16:48:22;9.00;;;2.90;;
44578;SDS011;37422;51.402;0.016;2022-11-06T16:51:13;6.65;;;1.98;;
44578;SDS011;37422;51.402;0.016;2022-11-06T16:53:56;7.97;;;3.17;;
44578;SDS011;37422;51.402;0.016;2022-11-06T16:56:29;8.57;;;2.53;;
44578;SDS011;37422;51.402;0.016;2022-11-06T16:59:04;7.55;;;3.33;;
44578;SDS011;37422;51.402;0.016;2022-11-06T17:01:44;12.88;;;3.28;;
44578;SDS011;37422;51.402;0.016;2022-11-06T17:04:23;8.85;;;2.35;;
44578;SDS011;37422;51.402;0.016;2022-11-06T17:06:59;6.47;;;2.65;;
44578;SDS011;37422;51.402;0.016;2022-11-06T17:09:28;11.90;;;3.03;;
44578;SDS011;37422;51.402;0.016;2022-11-06T17:12:00;13.38;;;3.78;;
44578;SDS011;37422;51.402;0.016;2022-11-06T17:14:29;14.52;;;5.20;;
44578;SDS011;37422;51.402;0.016;2022-11-06T17:16:59;7.78;;;2.60;;
44578;SDS011;37422;51.402;0.016;2022-11-06T17:19:28;11.90;;;3.30;;
44578;SDS011;37422;51.402;0.016;2022-11-06T17:21:56;17.50;;;6.70;;
44578;SDS011;37422;51.402;0.016;2022-11-06T17:24:24;11.57;;;3.80;;
44578;SDS011;37422;51.402;0.016;2022-11-06T17:27:07;22.13;;;11.65;;
44578;SDS011;37422;51.402;0.016;2022-11-06T17:29:35;22.77;;;12.52;;
44578;SDS011;37422;51.402;0.016;2022-11-06T17:32:03;16.52;;;4.55;;
44578;SDS011;37422;51.402;0.016;2022-11-06T17:34:31;26.45;;;8.00;;
44578;SDS011;37422;51.402;0.016;2022-11-06T17:36:59;20.60;;;6.53;;
44578;SDS011;37422;51.402;0.016;2022-11-06T17:39:27;29.85;;;10.07;;
44578;SDS011;37422;51.402;0.016;2022-11-06T17:41:54;31.73;;;12.80;;
44578;SDS011;37422;51.402;0.016;2022-11-06T17:44:22;27.65;;;10.73;;
44578;SDS011;37422;51.402;0.016;2022-11-06T17:46:50;31.63;;;11.05;;
44578;SDS011;37422;51.402;0.016;2022-11-06T17:49:17;20.23;;;7.05;;
44578;SDS011;37422;51.402;0.016;2022-11-06T17:51:46;19.63;;;6.03;;
44578;SDS011;37422;51.402;0.016;2022-11-06T17:54:20;42.03;;;26.35;;
44578;SDS011;37422;51.402;0.016;2022-11-06T17:56:49;39.37;;;24.60;;
44578;SDS011;37422;51.402;0.016;2022-11-06T17:59:19;24.00;;;8.48;;
44578;SDS011;37422;51.402;0.016;2022-11-06T18:01:48;16.23;;;5.70;;
44578;SDS011;37422;51.402;0.016;2022-11-06T18:04:17;18.65;;;7.32;;
44578;SDS011;37422;51.402;0.016;2022-11-06T18:06:46;34.90;;;24.92;;
44578;SDS011;37422;51.402;0.016;2022-11-06T18:09:15;32.33;;;21.45;;
44578;SDS011;37422;51.402;0.016;2022-11-06T18:11:42;31.77;;;17.80;;
44578;SDS011;37422;51.402;0.016;2022-11-06T18:14:10;25.00;;;12.25;;
44578;SDS011;37422;51.402;0.016;2022-11-06T18:16:39;41.35;;;22.33;;
44578;SDS011;37422;51.402;0.016;2022-11-06T18:19:10;60.85;;;54.25;;
44578;SDS011;37422;51.402;0.016;2022-11-06T18:24:08;15.88;;;4.85;;
44578;SDS011;37422;51.402;0.016;2022-11-06T18:26:35;27.77;;;9.48;;
44578;SDS011;37422;51.402;0.016;2022-11-06T18:29:04;26.33;;;12.07;;